createdAt,value
2022-12-11T00:00:26.125Z,87.14
2022-12-11T00:02:53.047Z,86.56
2022-12-11T00:05:19.961Z,86.38
2022-12-11T00:07:46.852Z,86.47
2022-12-11T00:10:13.760Z,86.54
2022-12-11T00:12:40.593Z,87.16
2022-12-11T00:15:08.685Z,86.99
2022-12-11T00:17:35.977Z,87.83
2022-12-11T00:20:03.006Z,87.06
2022-12-11T00:22:32.870Z,87.07
2022-12-11T00:24:59.714Z,87.56
2022-12-11T00:27:26.547Z,87.12
2022-12-11T00:29:53.354Z,87.96
2022-12-11T00:32:20.188Z,87.33
2022-12-11T00:34:47.010Z,87.90
2022-12-11T00:37:14.014Z,87.37
2022-12-11T00:39:40.920Z,87.05
2022-12-11T00:42:08.568Z,87.93
2022-12-11T00:44:35.994Z,87.32
2022-12-11T00:47:03.734Z,87.95
2022-12-11T00:49:30.607Z,87.17
2022-12-11T00:51:57.430Z,87.82
2022-12-11T00:54:24.294Z,87.93
2022-12-11T00:56:51.109Z,88.39
2022-12-11T00:59:17.935Z,87.68
2022-12-11T01:01:44.886Z,87.47
2022-12-11T01:04:11.779Z,88.29
2022-12-11T01:06:39.694Z,87.93
2022-12-11T01:09:25.091Z,87.30
2022-12-11T01:11:52.548Z,87.87
2022-12-11T01:14:19.523Z,88.03
2022-12-11T01:16:46.392Z,88.32
2022-12-11T01:19:13.486Z,87.73
2022-12-11T01:21:41.112Z,87.27
2022-12-11T01:24:08.159Z,87.17
2022-12-11T01:26:34.949Z,87.30
2022-12-11T01:29:01.945Z,87.86
2022-12-11T01:31:28.946Z,87.50
2022-12-11T01:33:56.497Z,87.61
2022-12-11T01:36:23.887Z,86.88
2022-12-11T01:38:51.257Z,87.16
2022-12-11T01:41:18.941Z,87.09
2022-12-11T01:44:27.727Z,87.15
2022-12-11T01:46:54.689Z,88.02
2022-12-11T01:49:26.028Z,88.73
2022-12-11T01:52:19.941Z,89.19
2022-12-11T01:54:48.235Z,88.94
2022-12-11T01:57:16.209Z,89.74
2022-12-11T01:59:45.968Z,89.19
2022-12-11T02:02:21.153Z,90.28
2022-12-11T02:04:49.378Z,89.27
2022-12-11T02:07:16.698Z,89.14
2022-12-11T02:09:46.776Z,90.08
2022-12-11T02:12:37.322Z,91.17
2022-12-11T02:15:22.706Z,90.76
2022-12-11T02:17:58.365Z,90.58
2022-12-11T02:20:30.874Z,90.56
2022-12-11T02:23:27.251Z,90.44
2022-12-11T02:26:23.726Z,90.39
2022-12-11T02:29:02.154Z,90.84
2022-12-11T02:31:47.843Z,91.56
2022-12-11T02:34:41.094Z,90.51
2022-12-11T02:37:14.778Z,90.06
2022-12-11T02:39:43.548Z,89.94
2022-12-11T02:42:12.692Z,89.75
2022-12-11T02:44:41.258Z,89.47
2022-12-11T02:47:14.163Z,89.33
2022-12-11T02:49:45.103Z,88.89
2022-12-11T02:52:14.792Z,88.99
2022-12-11T02:54:45.045Z,88.56
2022-12-11T02:57:34.202Z,88.54
2022-12-11T03:00:01.330Z,88.34
2022-12-11T03:02:28.200Z,88.62
2022-12-11T03:04:57.610Z,88.63
2022-12-11T03:07:36.075Z,88.08
2022-12-11T03:10:04.771Z,90.04
2022-12-11T03:12:37.331Z,89.76
2022-12-11T03:15:10.132Z,89.73
2022-12-11T03:18:07.941Z,89.52
2022-12-11T03:21:38.155Z,89.80
2022-12-11T03:24:17.351Z,89.81
2022-12-11T03:26:56.347Z,89.39
2022-12-11T03:29:31.239Z,89.33
2022-12-11T03:32:11.329Z,89.59
2022-12-11T03:35:03.914Z,88.86
2022-12-11T03:37:36.083Z,88.81
2022-12-11T03:40:17.292Z,88.05
2022-12-11T03:42:49.202Z,88.51
2022-12-11T03:45:19.331Z,88.64
2022-12-11T03:47:47.317Z,88.24
2022-12-11T03:50:16.692Z,88.03
2022-12-11T03:52:47.750Z,87.79
2022-12-11T03:55:17.673Z,88.88
2022-12-11T03:57:44.996Z,89.18
2022-12-11T04:00:16.542Z,88.44
2022-12-11T04:02:44.719Z,88.60
2022-12-11T04:05:12.489Z,89.54
2022-12-11T04:07:39.654Z,89.23
2022-12-11T04:10:06.680Z,89.14
2022-12-11T04:12:33.486Z,89.36
2022-12-11T04:15:03.050Z,89.61
2022-12-11T04:17:54.314Z,90.40
2022-12-11T04:20:40.681Z,90.15
2022-12-11T04:23:32.513Z,91.35
2022-12-11T04:26:14.300Z,89.92
2022-12-11T04:28:42.948Z,90.60
2022-12-11T04:31:16.157Z,90.92
2022-12-11T04:33:43.424Z,91.05
2022-12-11T04:36:11.803Z,90.76
2022-12-11T04:38:39.532Z,90.84
2022-12-11T04:41:11.480Z,91.15
2022-12-11T04:43:39.053Z,90.37
2022-12-11T04:46:15.932Z,90.86
2022-12-11T04:48:43.164Z,90.44
2022-12-11T04:51:10.731Z,90.76
2022-12-11T04:53:38.287Z,91.13
2022-12-11T04:56:07.829Z,90.95
2022-12-11T04:58:35.940Z,90.80
2022-12-11T05:01:21.548Z,90.82
2022-12-11T05:03:49.419Z,90.60
2022-12-11T05:06:16.404Z,90.84
2022-12-11T05:08:43.794Z,90.47
2022-12-11T05:11:14.275Z,89.42
2022-12-11T05:13:42.015Z,89.41
2022-12-11T05:16:11.549Z,89.50
2022-12-11T05:18:38.510Z,89.15
2022-12-11T05:21:09.997Z,89.21
2022-12-11T05:23:37.241Z,90.06
2022-12-11T05:26:08.650Z,90.84
2022-12-11T05:28:38.149Z,90.71
2022-12-11T05:31:10.624Z,90.74
2022-12-11T05:33:37.690Z,91.04
2022-12-11T05:36:05.090Z,90.56
2022-12-11T05:38:31.998Z,91.83
2022-12-11T05:41:05.965Z,92.08
2022-12-11T05:43:36.324Z,91.68
2022-12-11T05:46:16.873Z,90.80
2022-12-11T05:48:46.453Z,90.73
2022-12-11T05:51:15.421Z,90.36
2022-12-11T05:53:43.851Z,89.52
2022-12-11T05:56:17.413Z,89.61
2022-12-11T05:58:46.072Z,89.53
2022-12-11T06:01:22.547Z,89.44
2022-12-11T06:03:49.477Z,89.52
2022-12-11T06:06:16.374Z,90.24
2022-12-11T06:08:43.666Z,89.86
2022-12-11T06:11:20.887Z,89.79
2022-12-11T06:13:50.631Z,89.40
2022-12-11T06:16:17.708Z,89.66
2022-12-11T06:18:45.648Z,90.05
2022-12-11T06:21:25.077Z,89.57
2022-12-11T06:23:54.583Z,89.84
2022-12-11T06:26:22.280Z,90.18
2022-12-11T06:28:49.701Z,90.13
2022-12-11T06:31:17.335Z,89.84
2022-12-11T06:33:45.048Z,90.05
2022-12-11T06:36:17.100Z,89.13
2022-12-11T06:38:44.987Z,89.23
2022-12-11T06:41:12.637Z,89.97
2022-12-11T06:43:40.902Z,91.57
2022-12-11T06:46:11.238Z,91.49
2022-12-11T06:48:38.797Z,90.94
2022-12-11T06:51:08.124Z,89.87
2022-12-11T06:53:35.429Z,90.81
2022-12-11T06:56:08.815Z,90.88
2022-12-11T06:58:37.388Z,91.18
2022-12-11T07:01:12.306Z,91.16
2022-12-11T07:03:39.221Z,92.08
2022-12-11T07:06:06.312Z,91.90
2022-12-11T07:08:33.648Z,90.94
2022-12-11T07:11:10.087Z,91.06
2022-12-11T07:13:37.387Z,89.88
2022-12-11T07:16:10.681Z,90.47
2022-12-11T07:18:39.780Z,90.36
2022-12-11T07:21:07.886Z,90.95
2022-12-11T07:23:35.556Z,90.68
2022-12-11T07:26:08.440Z,91.43
2022-12-11T07:28:36.430Z,91.84
2022-12-11T07:31:13.385Z,92.03
2022-12-11T07:33:40.809Z,92.17
2022-12-11T07:36:10.091Z,91.14
2022-12-11T07:38:37.478Z,90.65
2022-12-11T07:41:12.235Z,91.74
2022-12-11T07:43:39.751Z,91.29
2022-12-11T07:46:16.483Z,90.88
2022-12-11T07:48:45.903Z,90.67
2022-12-11T07:51:18.940Z,90.13
2022-12-11T07:53:48.135Z,90.62
2022-12-11T07:56:16.665Z,89.89
2022-12-11T07:58:44.159Z,88.85
2022-12-11T08:01:21.886Z,88.88
2022-12-11T08:03:49.339Z,87.12
2022-12-11T08:06:16.842Z,85.96
2022-12-11T08:08:44.213Z,84.80
2022-12-11T08:11:14.627Z,84.33
2022-12-11T08:13:44.011Z,82.36
2022-12-11T08:16:14.605Z,82.28
2022-12-11T08:18:43.564Z,80.68
2022-12-11T08:21:15.953Z,74.16
2022-12-11T08:23:43.759Z,72.30
2022-12-11T08:26:18.023Z,71.77
2022-12-11T08:28:45.076Z,70.69
2022-12-11T08:31:14.169Z,71.71
2022-12-11T08:33:41.915Z,71.37
2022-12-11T08:36:13.133Z,70.21
2022-12-11T08:38:40.655Z,70.80
2022-12-11T08:41:20.102Z,71.71
2022-12-11T08:43:48.165Z,71.71
2022-12-11T08:46:15.622Z,72.46
2022-12-11T08:48:44.013Z,73.13
2022-12-11T08:51:16.181Z,74.43
2022-12-11T08:53:43.564Z,76.88
2022-12-11T08:56:16.224Z,77.28
2022-12-11T08:58:44.103Z,78.33
2022-12-11T09:01:14.731Z,78.76
2022-12-11T09:03:42.492Z,80.47
2022-12-11T09:06:16.184Z,80.83
2022-12-11T09:08:51.671Z,80.79
2022-12-11T09:11:23.290Z,81.04
2022-12-11T09:13:50.539Z,81.15
2022-12-11T09:16:20.867Z,81.70
2022-12-11T09:18:50.183Z,81.41
2022-12-11T09:21:20.535Z,81.40
2022-12-11T09:23:48.279Z,81.15
2022-12-11T09:26:18.119Z,81.23
2022-12-11T09:28:47.011Z,81.48
2022-12-11T09:31:24.799Z,80.80
2022-12-11T09:33:55.322Z,80.06
2022-12-11T09:36:22.746Z,79.80
2022-12-11T09:38:49.611Z,79.78
2022-12-11T09:41:22.436Z,79.00
2022-12-11T09:44:12.182Z,78.04
2022-12-11T09:46:39.985Z,78.59
2022-12-11T09:49:32.140Z,78.48
2022-12-11T09:52:18.770Z,77.68
2022-12-11T09:54:59.618Z,77.45
2022-12-11T09:57:33.456Z,77.33
2022-12-11T10:00:33.087Z,76.94
2022-12-11T10:03:23.866Z,76.94
2022-12-11T10:06:12.897Z,75.29
2022-12-11T10:09:12.446Z,76.38
2022-12-11T10:12:12.450Z,75.52
2022-12-11T10:15:22.257Z,74.70
2022-12-11T10:17:49.487Z,75.25
2022-12-11T10:20:39.702Z,75.22
2022-12-11T10:23:10.331Z,74.83
2022-12-11T10:25:42.900Z,74.67
2022-12-11T10:28:19.337Z,75.24
2022-12-11T10:31:20.086Z,76.97
2022-12-11T10:34:13.338Z,77.56
2022-12-11T10:36:42.511Z,78.47
2022-12-11T10:39:21.677Z,78.75
2022-12-11T10:41:51.403Z,79.20
2022-12-11T10:44:22.121Z,79.05
2022-12-11T10:47:13.659Z,79.09
2022-12-11T10:49:54.076Z,79.89
2022-12-11T10:52:28.564Z,79.17
2022-12-11T10:55:27.836Z,78.19
2022-12-11T10:58:06.368Z,78.76
2022-12-11T11:00:41.239Z,77.98
2022-12-11T11:03:27.830Z,79.15
2022-12-11T11:06:15.144Z,78.96
2022-12-11T11:08:49.063Z,79.88
2022-12-11T11:11:36.818Z,79.49
2022-12-11T11:14:20.241Z,79.36
2022-12-11T11:16:50.330Z,81.64
2022-12-11T11:19:36.044Z,81.05
2022-12-11T11:22:09.294Z,80.78
2022-12-11T11:24:56.293Z,81.17
2022-12-11T11:27:48.776Z,82.04
2022-12-11T11:30:28.014Z,80.86
2022-12-11T11:33:04.466Z,80.75
2022-12-11T11:35:32.955Z,81.69
2022-12-11T11:38:18.887Z,81.10
2022-12-11T11:41:05.637Z,82.35
2022-12-11T11:43:43.455Z,80.96
2022-12-11T11:46:30.002Z,81.15
2022-12-11T11:49:56.144Z,81.39
2022-12-11T11:52:56.665Z,80.42
2022-12-11T11:55:45.798Z,80.68
2022-12-11T11:58:37.799Z,81.02
2022-12-11T12:01:05.021Z,81.97
2022-12-11T12:03:31.856Z,82.88
2022-12-11T12:06:38.321Z,82.48
2022-12-11T12:09:24.096Z,82.77
2022-12-11T12:12:12.431Z,82.40
2022-12-11T12:15:18.773Z,81.08
2022-12-11T12:18:16.692Z,82.03
2022-12-11T12:20:58.748Z,81.87
2022-12-11T12:24:16.773Z,81.67
2022-12-11T12:30:23.237Z,81.83
2022-12-11T12:32:55.814Z,81.88
2022-12-11T12:35:37.271Z,80.95
2022-12-11T12:38:40.247Z,81.40
2022-12-11T12:41:49.947Z,80.64
2022-12-11T12:44:20.320Z,81.12
2022-12-11T12:47:22.932Z,80.58
2022-12-11T12:49:53.632Z,80.53
2022-12-11T12:52:25.395Z,81.13
2022-12-11T12:55:16.563Z,81.39
2022-12-11T12:58:01.750Z,81.09
2022-12-11T13:00:40.211Z,81.51
2022-12-11T13:03:23.639Z,80.85
2022-12-11T13:06:09.500Z,81.34
2022-12-11T13:08:48.947Z,81.28
2022-12-11T13:11:19.894Z,80.91
2022-12-11T13:14:04.811Z,81.02
2022-12-11T13:16:42.038Z,80.15
2022-12-11T13:19:23.919Z,79.08
2022-12-11T13:22:02.410Z,79.11
2022-12-11T13:24:33.206Z,78.95
2022-12-11T13:27:37.129Z,78.05
2022-12-11T13:30:22.812Z,78.71
2022-12-11T13:33:18.131Z,78.92
2022-12-11T13:35:45.499Z,78.49
2022-12-11T13:38:22.749Z,78.56
2022-12-11T13:40:54.620Z,78.49
2022-12-11T13:43:26.504Z,78.35
2022-12-11T13:46:01.321Z,78.02
2022-12-11T13:48:35.309Z,78.09
2022-12-11T13:51:04.090Z,77.76
2022-12-11T13:53:30.980Z,79.44
2022-12-11T13:56:14.906Z,79.87
2022-12-11T13:58:41.961Z,80.38
2022-12-11T14:01:12.752Z,80.50
2022-12-11T14:03:46.871Z,80.42
2022-12-11T14:06:18.603Z,79.80
2022-12-11T14:08:53.679Z,79.82
2022-12-11T14:11:28.409Z,79.47
2022-12-11T14:13:58.776Z,79.90
2022-12-11T14:16:27.472Z,80.33
2022-12-11T14:18:59.447Z,80.59
2022-12-11T14:21:26.352Z,80.56
2022-12-11T14:23:59.993Z,80.82
2022-12-11T14:26:29.773Z,80.63
2022-12-11T14:28:56.666Z,80.29
2022-12-11T14:31:41.868Z,81.56
2022-12-11T14:34:19.348Z,81.23
2022-12-11T14:36:48.062Z,80.65
2022-12-11T14:39:22.899Z,81.13
2022-12-11T14:42:00.173Z,81.37
2022-12-11T14:44:33.346Z,82.27
2022-12-11T14:47:10.921Z,82.02
2022-12-11T14:50:16.874Z,81.46
2022-12-11T14:52:53.843Z,81.49
2022-12-11T14:55:29.939Z,81.37
2022-12-11T14:58:14.568Z,81.33
2022-12-11T15:00:41.455Z,82.54
2022-12-11T15:03:23.194Z,81.87
2022-12-11T15:05:56.110Z,81.59
2022-12-11T15:08:32.437Z,82.49
2022-12-11T15:11:08.370Z,81.83
2022-12-11T15:13:39.927Z,82.24
2022-12-11T15:16:08.106Z,82.01
2022-12-11T15:18:38.395Z,82.22
2022-12-11T15:21:10.238Z,81.52
2022-12-11T15:23:54.994Z,81.82
2022-12-11T15:26:59.277Z,82.37
2022-12-11T15:29:34.491Z,81.54
2022-12-11T15:32:14.264Z,82.30
2022-12-11T15:34:48.862Z,81.72
2022-12-11T15:37:30.215Z,82.01
2022-12-11T15:40:01.531Z,82.47
2022-12-11T15:42:37.067Z,81.36
2022-12-11T15:45:09.576Z,81.31
2022-12-11T15:47:36.895Z,81.06
2022-12-11T15:50:18.700Z,81.63
2022-12-11T15:52:46.486Z,81.52
2022-12-11T15:55:14.283Z,81.23
2022-12-11T15:58:09.277Z,81.77
2022-12-11T16:00:36.176Z,81.37
2022-12-11T16:03:03.071Z,82.12
2022-12-11T16:05:30.016Z,81.63
2022-12-11T16:07:59.393Z,81.54
2022-12-11T16:10:28.858Z,80.89
2022-12-11T16:12:59.316Z,81.00
2022-12-11T16:15:27.553Z,81.21
2022-12-11T16:18:10.779Z,80.60
2022-12-11T16:20:40.280Z,81.11
2022-12-11T16:23:08.283Z,81.13
2022-12-11T16:25:39.327Z,81.11
2022-12-11T16:28:07.027Z,81.53
2022-12-11T16:30:37.517Z,81.43
2022-12-11T16:33:12.008Z,81.26
2022-12-11T16:35:39.873Z,80.84
2022-12-11T16:38:07.699Z,81.95
2022-12-11T16:40:34.569Z,82.21
2022-12-11T16:43:03.524Z,82.08
2022-12-11T16:45:30.521Z,82.57
2022-12-11T16:47:57.332Z,82.00
2022-12-11T16:50:25.312Z,82.19
2022-12-11T16:52:52.378Z,82.24
2022-12-11T16:55:22.131Z,81.30
2022-12-11T16:57:49.054Z,81.42
2022-12-11T17:00:16.574Z,80.40
2022-12-11T17:02:43.535Z,80.25
2022-12-11T17:05:11.023Z,80.36
2022-12-11T17:07:40.743Z,80.63
2022-12-11T17:10:08.445Z,81.71
2022-12-11T17:12:35.348Z,82.16
2022-12-11T17:15:02.301Z,82.00
2022-12-11T17:17:29.179Z,82.13
2022-12-11T17:19:56.160Z,81.51
2022-12-11T17:22:23.021Z,81.31
2022-12-11T17:24:49.842Z,81.07
2022-12-11T17:27:16.875Z,81.36
2022-12-11T17:29:43.914Z,80.09
2022-12-11T17:32:11.272Z,80.16
2022-12-11T17:34:38.825Z,80.91
2022-12-11T17:37:06.460Z,81.79
2022-12-11T17:39:33.683Z,81.72
2022-12-11T17:42:00.869Z,82.17
2022-12-11T17:44:30.505Z,82.10
2022-12-11T17:47:04.726Z,81.57
2022-12-11T17:49:34.494Z,81.78
2022-12-11T17:52:01.345Z,82.88
2022-12-11T17:54:28.143Z,82.96
2022-12-11T17:56:54.980Z,82.57
2022-12-11T17:59:21.816Z,81.53
2022-12-11T18:01:48.809Z,83.05
2022-12-11T18:04:15.882Z,82.56
2022-12-11T18:06:42.694Z,81.92
2022-12-11T18:09:10.243Z,81.28
2022-12-11T18:11:37.363Z,81.19
2022-12-11T18:14:04.477Z,81.39
2022-12-11T18:16:35.672Z,81.62
2022-12-11T18:19:02.740Z,81.47
2022-12-11T18:21:34.010Z,82.34
2022-12-11T18:24:01.849Z,82.49
2022-12-11T18:26:29.474Z,83.07
2022-12-11T18:28:56.502Z,83.47
2022-12-11T18:31:24.747Z,83.11
2022-12-11T18:33:52.219Z,83.93
2022-12-11T18:36:20.284Z,83.15
2022-12-11T18:38:48.073Z,82.84
2022-12-11T18:41:16.864Z,82.85
2022-12-11T18:43:44.026Z,82.94
2022-12-11T18:46:14.527Z,82.25
2022-12-11T18:48:43.144Z,82.53
2022-12-11T18:51:14.697Z,82.19
2022-12-11T18:53:41.682Z,81.83
2022-12-11T18:56:12.593Z,81.63
2022-12-11T18:58:40.100Z,82.33
2022-12-11T19:01:14.054Z,81.78
2022-12-11T19:03:41.219Z,81.63
2022-12-11T19:06:18.208Z,82.36
2022-12-11T19:08:45.746Z,81.97
2022-12-11T19:11:18.460Z,81.84
2022-12-11T19:13:45.969Z,81.38
2022-12-11T19:16:33.414Z,81.40
2022-12-11T19:19:04.156Z,81.50
2022-12-11T19:21:31.555Z,81.97
2022-12-11T19:23:59.402Z,82.04
2022-12-11T19:26:26.350Z,82.24
2022-12-11T19:28:53.752Z,82.90
2022-12-11T19:31:22.881Z,82.51
2022-12-11T19:33:50.166Z,82.09
2022-12-11T19:36:20.771Z,82.40
2022-12-11T19:38:47.984Z,82.90
2022-12-11T19:41:26.955Z,81.95
2022-12-11T19:43:59.026Z,81.79
2022-12-11T19:46:27.203Z,81.97
2022-12-11T19:48:57.198Z,82.22
2022-12-11T19:51:40.132Z,81.77
2022-12-11T19:54:09.441Z,81.73
2022-12-11T19:56:36.370Z,81.81
2022-12-11T19:59:05.856Z,81.99
2022-12-11T20:01:37.014Z,82.79
2022-12-11T20:04:12.144Z,82.96
2022-12-11T20:06:41.745Z,82.67
2022-12-11T20:09:11.932Z,82.63
2022-12-11T20:11:41.792Z,82.87
2022-12-11T20:14:08.942Z,82.22
2022-12-11T20:19:22.838Z,82.64
2022-12-11T20:21:49.683Z,82.44
2022-12-11T20:24:16.587Z,82.69
2022-12-11T20:26:43.629Z,82.29
2022-12-11T20:29:13.046Z,82.73
2022-12-11T20:31:40.264Z,81.86
2022-12-11T20:34:07.808Z,82.26
2022-12-11T20:36:35.205Z,82.54
2022-12-11T20:39:02.163Z,81.97
2022-12-11T20:41:31.876Z,81.20
2022-12-11T20:43:59.242Z,81.38
2022-12-11T20:46:27.736Z,81.22
2022-12-11T20:48:58.449Z,81.51
2022-12-11T20:51:26.772Z,81.21
2022-12-11T20:53:59.440Z,81.38
2022-12-11T20:56:29.664Z,81.28
2022-12-11T20:58:58.506Z,81.61
2022-12-11T21:01:30.653Z,82.15
2022-12-11T21:03:58.862Z,82.48
2022-12-11T21:06:32.872Z,82.10
2022-12-11T21:09:04.844Z,82.16
2022-12-11T21:11:32.228Z,81.85
2022-12-11T21:13:59.255Z,81.95
2022-12-11T21:16:26.530Z,81.14
2022-12-11T21:18:57.520Z,81.15
2022-12-11T21:21:25.533Z,81.14
2022-12-11T21:23:52.800Z,81.00
2022-12-11T21:26:20.384Z,81.22
2022-12-11T21:28:47.236Z,80.81
2022-12-11T21:31:17.226Z,80.45
2022-12-11T21:33:45.267Z,80.24
2022-12-11T21:36:13.800Z,80.69
2022-12-11T21:38:42.080Z,80.60
2022-12-11T21:41:19.665Z,80.45
2022-12-11T21:46:36.065Z,81.45
2022-12-11T21:49:03.460Z,81.31
2022-12-11T21:51:37.923Z,81.31
2022-12-11T21:54:10.196Z,81.42
2022-12-11T21:56:37.094Z,80.92
2022-12-11T21:59:04.255Z,81.00
2022-12-11T22:01:38.714Z,81.17
2022-12-11T22:04:08.245Z,81.34
2022-12-11T22:06:35.665Z,80.78
2022-12-11T22:09:03.611Z,80.63
2022-12-11T22:11:33.333Z,80.92
2022-12-11T22:14:00.593Z,81.12
2022-12-11T22:16:27.776Z,81.31
2022-12-11T22:18:54.697Z,81.62
2022-12-11T22:21:21.554Z,82.37
2022-12-11T22:23:48.578Z,81.55
2022-12-11T22:26:25.621Z,81.78
2022-12-11T22:28:53.056Z,81.70
2022-12-11T22:31:23.956Z,82.14
2022-12-11T22:33:53.580Z,82.03
2022-12-11T22:36:25.655Z,83.04
2022-12-11T22:38:53.390Z,82.62
2022-12-11T22:41:32.303Z,83.65
2022-12-11T22:43:59.799Z,82.95
2022-12-11T22:46:29.907Z,83.72
2022-12-11T22:48:58.463Z,83.58
2022-12-11T22:51:25.410Z,82.71
2022-12-11T22:53:52.296Z,82.93
2022-12-11T22:56:19.466Z,82.47
2022-12-11T22:58:46.496Z,83.28
2022-12-11T23:01:21.036Z,83.52
2022-12-11T23:03:48.560Z,83.37
2022-12-11T23:06:19.034Z,83.80
2022-12-11T23:08:46.504Z,83.31
2022-12-11T23:11:27.120Z,84.00
2022-12-11T23:13:54.513Z,83.97
2022-12-11T23:16:25.299Z,84.41
2022-12-11T23:18:52.273Z,85.83
2022-12-11T23:21:20.041Z,85.11
2022-12-11T23:23:46.901Z,84.85
2022-12-11T23:26:15.210Z,85.49
2022-12-11T23:28:42.441Z,85.79
2022-12-11T23:31:10.029Z,87.01
2022-12-11T23:33:37.512Z,87.21
2022-12-11T23:36:05.141Z,86.79
2022-12-11T23:38:32.596Z,86.61
2022-12-11T23:41:02.330Z,87.27
2022-12-11T23:43:29.262Z,87.59
2022-12-11T23:45:56.340Z,87.50
2022-12-11T23:48:23.495Z,87.67
2022-12-11T23:50:50.348Z,87.60
2022-12-11T23:53:17.275Z,89.34
2022-12-11T23:55:45.453Z,88.80
2022-12-11T23:58:12.458Z,88.06
